sensor_id;sensor_type;location;lat;lon;timestamp;pressure;altitude;pressure_sealevel;temperature;humidity
58072;BME280;60383;46.626;18.866;2023-02-24T00:01:52;100248.19;;;8.69;61.90
58072;BME280;60383;46.626;18.866;2023-02-24T00:04:24;100241.84;;;8.69;62.75
58072;BME280;60383;46.626;18.866;2023-02-24T00:06:50;100239.75;;;8.90;61.74
58072;BME280;60383;46.626;18.866;2023-02-24T00:09:27;100237.13;;;8.71;62.31
58072;BME280;60383;46.626;18.866;2023-02-24T00:11:55;100228.84;;;8.43;63.65
58072;BME280;60383;46.626;18.866;2023-02-24T00:14:23;100240.56;;;8.73;62.95
58072;BME280;60383;46.626;18.866;2023-02-24T00:16:50;100228.13;;;8.60;63.15
58072;BME280;60383;46.626;18.866;2023-02-24T00:19:19;100230.72;;;8.52;63.48
58072;BME280;60383;46.626;18.866;2023-02-24T00:21:45;100224.25;;;8.53;63.37
58072;BME280;60383;46.626;18.866;2023-02-24T00:24:12;100222.38;;;8.44;63.62
58072;BME280;60383;46.626;18.866;2023-02-24T00:26:38;100219.97;;;8.41;64.09
58072;BME280;60383;46.626;18.866;2023-02-24T00:29:06;100218.88;;;8.71;62.54
58072;BME280;60383;46.626;18.866;2023-02-24T00:31:32;100211.88;;;8.59;62.96
58072;BME280;60383;46.626;18.866;2023-02-24T00:33:59;100211.78;;;8.51;62.86
58072;BME280;60383;46.626;18.866;2023-02-24T00:36:26;100210.97;;;8.68;62.78
58072;BME280;60383;46.626;18.866;2023-02-24T00:38:57;100212.66;;;8.79;62.77
58072;BME280;60383;46.626;18.866;2023-02-24T00:41:28;100202.34;;;9.01;61.83
58072;BME280;60383;46.626;18.866;2023-02-24T00:43:57;100188.25;;;8.77;62.65
58072;BME280;60383;46.626;18.866;2023-02-24T00:46:24;100185.63;;;8.76;62.97
58072;BME280;60383;46.626;18.866;2023-02-24T00:48:51;100192.47;;;8.62;62.92
58072;BME280;60383;46.626;18.866;2023-02-24T00:51:25;100191.75;;;8.60;63.47
58072;BME280;60383;46.626;18.866;2023-02-24T00:53:55;100186.63;;;8.57;63.96
58072;BME280;60383;46.626;18.866;2023-02-24T00:56:24;100186.66;;;8.37;64.27
58072;BME280;60383;46.626;18.866;2023-02-24T00:58:52;100185.94;;;8.35;64.95
58072;BME280;60383;46.626;18.866;2023-02-24T01:01:20;100174.47;;;8.31;65.08
58072;BME280;60383;46.626;18.866;2023-02-24T01:03:48;100175.13;;;8.53;64.54
58072;BME280;60383;46.626;18.866;2023-02-24T01:06:19;100169.91;;;8.60;64.34
58072;BME280;60383;46.626;18.866;2023-02-24T01:08:45;100166.19;;;8.89;63.76
58072;BME280;60383;46.626;18.866;2023-02-24T01:11:20;100163.28;;;8.62;64.28
58072;BME280;60383;46.626;18.866;2023-02-24T01:14:12;100169.13;;;8.40;65.20
58072;BME280;60383;46.626;18.866;2023-02-24T01:16:39;100158.88;;;8.52;64.76
58072;BME280;60383;46.626;18.866;2023-02-24T01:19:06;100164.28;;;8.24;65.52
58072;BME280;60383;46.626;18.866;2023-02-24T01:21:32;100154.69;;;8.57;65.07
58072;BME280;60383;46.626;18.866;2023-02-24T01:23:59;100155.06;;;8.35;65.42
58072;BME280;60383;46.626;18.866;2023-02-24T01:26:24;100150.44;;;8.45;65.19
58072;BME280;60383;46.626;18.866;2023-02-24T01:28:52;100145.25;;;8.42;65.39
58072;BME280;60383;46.626;18.866;2023-02-24T01:31:18;100136.06;;;8.43;66.13
58072;BME280;60383;46.626;18.866;2023-02-24T01:33:48;100127.59;;;8.46;65.83
58072;BME280;60383;46.626;18.866;2023-02-24T01:36:19;100124.28;;;8.52;65.65
58072;BME280;60383;46.626;18.866;2023-02-24T01:38:45;100120.38;;;8.55;65.97
58072;BME280;60383;46.626;18.866;2023-02-24T01:41:15;100120.56;;;8.43;66.07
58072;BME280;60383;46.626;18.866;2023-02-24T01:46:29;100113.28;;;8.34;66.87
58072;BME280;60383;46.626;18.866;2023-02-24T01:48:58;100111.53;;;8.33;67.01
58072;BME280;60383;46.626;18.866;2023-02-24T01:51:29;100107.66;;;8.36;66.84
58072;BME280;60383;46.626;18.866;2023-02-24T01:53:56;100096.13;;;8.42;67.16
58072;BME280;60383;46.626;18.866;2023-02-24T01:56:21;100103.06;;;8.36;67.39
58072;BME280;60383;46.626;18.866;2023-02-24T01:58:47;100104.56;;;8.21;68.54
58072;BME280;60383;46.626;18.866;2023-02-24T02:01:15;100106.47;;;8.20;68.25
58072;BME280;60383;46.626;18.866;2023-02-24T02:03:41;100111.22;;;8.08;68.57
58072;BME280;60383;46.626;18.866;2023-02-24T02:06:11;100108.88;;;8.23;68.00
58072;BME280;60383;46.626;18.866;2023-02-24T02:08:40;100114.63;;;8.20;68.49
58072;BME280;60383;46.626;18.866;2023-02-24T02:11:12;100103.41;;;8.23;68.66
58072;BME280;60383;46.626;18.866;2023-02-24T02:13:42;100102.91;;;8.38;68.09
58072;BME280;60383;46.626;18.866;2023-02-24T02:24:59;100086.53;;;8.47;68.48
58072;BME280;60383;46.626;18.866;2023-02-24T02:38:16;100074.72;;;8.19;69.40
58072;BME280;60383;46.626;18.866;2023-02-24T02:44:09;100073.13;;;8.26;69.64
58072;BME280;60383;46.626;18.866;2023-02-24T02:46:54;100078.56;;;8.26;69.50
58072;BME280;60383;46.626;18.866;2023-02-24T02:49:29;100076.38;;;8.02;70.53
58072;BME280;60383;46.626;18.866;2023-02-24T02:52:02;100066.31;;;8.03;70.98
58072;BME280;60383;46.626;18.866;2023-02-24T02:54:52;100066.38;;;7.83;71.04
58072;BME280;60383;46.626;18.866;2023-02-24T02:57:24;100072.47;;;7.67;71.36
58072;BME280;60383;46.626;18.866;2023-02-24T02:59:55;100060.81;;;7.75;71.49
58072;BME280;60383;46.626;18.866;2023-02-24T03:02:25;100062.19;;;7.51;73.00
58072;BME280;60383;46.626;18.866;2023-02-24T03:04:59;100061.84;;;7.64;72.43
58072;BME280;60383;46.626;18.866;2023-02-24T03:07:29;100063.41;;;7.66;72.66
58072;BME280;60383;46.626;18.866;2023-02-24T03:10:01;100058.25;;;7.73;72.36
58072;BME280;60383;46.626;18.866;2023-02-24T03:12:34;100069.38;;;7.90;72.00
58072;BME280;60383;46.626;18.866;2023-02-24T03:15:06;100055.97;;;8.06;71.41
58072;BME280;60383;46.626;18.866;2023-02-24T03:17:37;100058.78;;;7.87;71.81
58072;BME280;60383;46.626;18.866;2023-02-24T03:23:26;100053.63;;;7.74;72.45
58072;BME280;60383;46.626;18.866;2023-02-24T03:26:09;100058.63;;;7.88;72.27
58072;BME280;60383;46.626;18.866;2023-02-24T03:31:24;100057.31;;;7.92;72.03
58072;BME280;60383;46.626;18.866;2023-02-24T03:34:20;100051.91;;;7.82;72.63
58072;BME280;60383;46.626;18.866;2023-02-24T03:36:48;100050.31;;;7.80;72.46
58072;BME280;60383;46.626;18.866;2023-02-24T03:39:14;100054.69;;;8.00;72.08
58072;BME280;60383;46.626;18.866;2023-02-24T03:41:48;100050.84;;;7.93;72.17
58072;BME280;60383;46.626;18.866;2023-02-24T03:44:20;100043.78;;;8.00;71.93
58072;BME280;60383;46.626;18.866;2023-02-24T03:46:46;100045.25;;;7.95;72.15
58072;BME280;60383;46.626;18.866;2023-02-24T03:49:13;100043.66;;;8.02;72.00
58072;BME280;60383;46.626;18.866;2023-02-24T03:51:42;100045.69;;;7.90;72.45
58072;BME280;60383;46.626;18.866;2023-02-24T03:59:57;100041.00;;;7.73;73.71
58072;BME280;60383;46.626;18.866;2023-02-24T04:02:42;100040.25;;;7.43;74.63
58072;BME280;60383;46.626;18.866;2023-02-24T04:05:19;100033.06;;;7.42;74.66
58072;BME280;60383;46.626;18.866;2023-02-24T04:07:49;100029.03;;;7.46;75.43
58072;BME280;60383;46.626;18.866;2023-02-24T04:10:20;100028.09;;;7.17;75.98
58072;BME280;60383;46.626;18.866;2023-02-24T04:15:26;100018.22;;;7.64;74.95
58072;BME280;60383;46.626;18.866;2023-02-24T04:17:57;100021.06;;;7.25;76.26
58072;BME280;60383;46.626;18.866;2023-02-24T04:20:28;100007.41;;;7.44;75.87
58072;BME280;60383;46.626;18.866;2023-02-24T04:23:01;100003.44;;;7.66;74.90
58072;BME280;60383;46.626;18.866;2023-02-24T04:25:29;100007.03;;;7.67;74.87
58072;BME280;60383;46.626;18.866;2023-02-24T04:27:57;100004.47;;;7.93;74.28
58072;BME280;60383;46.626;18.866;2023-02-24T04:30:25;100003.25;;;7.88;74.05
58072;BME280;60383;46.626;18.866;2023-02-24T04:32:53;100002.41;;;7.77;74.35
58072;BME280;60383;46.626;18.866;2023-02-24T04:35:21;100006.31;;;7.65;74.68
58072;BME280;60383;46.626;18.866;2023-02-24T04:37:48;100002.25;;;7.41;76.55
58072;BME280;60383;46.626;18.866;2023-02-24T04:40:16;99996.03;;;7.59;76.07
58072;BME280;60383;46.626;18.866;2023-02-24T04:42:43;99991.56;;;7.58;76.17
58072;BME280;60383;46.626;18.866;2023-02-24T04:45:15;99996.00;;;7.68;75.57
58072;BME280;60383;46.626;18.866;2023-02-24T04:47:43;99990.09;;;7.73;75.61
58072;BME280;60383;46.626;18.866;2023-02-24T04:50:19;99984.06;;;7.70;76.30
58072;BME280;60383;46.626;18.866;2023-02-24T04:52:59;99981.72;;;7.84;75.53
58072;BME280;60383;46.626;18.866;2023-02-24T04:55:27;99983.22;;;7.97;75.40
58072;BME280;60383;46.626;18.866;2023-02-24T04:57:58;99980.91;;;7.74;76.19
58072;BME280;60383;46.626;18.866;2023-02-24T05:00:24;99969.47;;;7.98;75.22
58072;BME280;60383;46.626;18.866;2023-02-24T05:02:55;99974.97;;;8.07;75.30
58072;BME280;60383;46.626;18.866;2023-02-24T05:05:22;99963.28;;;7.96;75.55
58072;BME280;60383;46.626;18.866;2023-02-24T05:07:56;99959.44;;;7.89;75.70
58072;BME280;60383;46.626;18.866;2023-02-24T05:10:29;99960.25;;;7.72;76.79
58072;BME280;60383;46.626;18.866;2023-02-24T05:12:55;99951.09;;;7.63;77.77
58072;BME280;60383;46.626;18.866;2023-02-24T05:15:25;99948.00;;;7.48;78.06
58072;BME280;60383;46.626;18.866;2023-02-24T05:18:03;99951.22;;;7.71;78.09
58072;BME280;60383;46.626;18.866;2023-02-24T05:20:39;99948.81;;;7.68;78.01
58072;BME280;60383;46.626;18.866;2023-02-24T05:23:32;99950.91;;;7.46;78.32
58072;BME280;60383;46.626;18.866;2023-02-24T05:26:02;99945.13;;;7.49;78.42
58072;BME280;60383;46.626;18.866;2023-02-24T05:28:36;99944.09;;;7.60;78.33
58072;BME280;60383;46.626;18.866;2023-02-24T05:31:07;99942.69;;;7.56;78.31
58072;BME280;60383;46.626;18.866;2023-02-24T05:33:37;99941.44;;;7.41;79.49
58072;BME280;60383;46.626;18.866;2023-02-24T05:36:08;99941.88;;;7.36;79.05
58072;BME280;60383;46.626;18.866;2023-02-24T05:38:35;99945.31;;;7.38;79.51
58072;BME280;60383;46.626;18.866;2023-02-24T05:41:11;99948.94;;;7.29;79.79
58072;BME280;60383;46.626;18.866;2023-02-24T05:44:01;99947.50;;;7.34;78.93
58072;BME280;60383;46.626;18.866;2023-02-24T05:46:31;99946.28;;;7.47;78.91
58072;BME280;60383;46.626;18.866;2023-02-24T05:48:59;99950.75;;;7.48;78.81
58072;BME280;60383;46.626;18.866;2023-02-24T05:51:30;99947.59;;;7.43;78.50
58072;BME280;60383;46.626;18.866;2023-02-24T05:54:08;99947.50;;;7.34;78.65
58072;BME280;60383;46.626;18.866;2023-02-24T05:56:36;99962.72;;;7.17;79.25
58072;BME280;60383;46.626;18.866;2023-02-24T05:59:04;99954.66;;;7.35;79.14
58072;BME280;60383;46.626;18.866;2023-02-24T06:01:36;99960.50;;;7.41;78.45
58072;BME280;60383;46.626;18.866;2023-02-24T06:04:04;99958.78;;;7.40;78.63
58072;BME280;60383;46.626;18.866;2023-02-24T06:06:40;99960.06;;;7.45;78.29
58072;BME280;60383;46.626;18.866;2023-02-24T06:09:12;99963.81;;;7.44;79.08
58072;BME280;60383;46.626;18.866;2023-02-24T06:11:39;99963.84;;;7.34;78.96
58072;BME280;60383;46.626;18.866;2023-02-24T06:14:07;99963.56;;;7.38;79.46
58072;BME280;60383;46.626;18.866;2023-02-24T06:16:33;99969.47;;;7.23;79.80
58072;BME280;60383;46.626;18.866;2023-02-24T06:18:59;99961.13;;;7.25;80.30
58072;BME280;60383;46.626;18.866;2023-02-24T06:21:25;99960.22;;;7.44;79.68
58072;BME280;60383;46.626;18.866;2023-02-24T06:23:57;99961.66;;;7.38;79.20
58072;BME280;60383;46.626;18.866;2023-02-24T06:26:24;99954.91;;;7.42;79.28
58072;BME280;60383;46.626;18.866;2023-02-24T06:28:54;99964.88;;;7.24;79.87
58072;BME280;60383;46.626;18.866;2023-02-24T06:31:20;99957.59;;;7.52;79.43
58072;BME280;60383;46.626;18.866;2023-02-24T06:33:46;99962.47;;;7.58;78.93
58072;BME280;60383;46.626;18.866;2023-02-24T06:36:12;99959.75;;;7.58;79.00
58072;BME280;60383;46.626;18.866;2023-02-24T06:38:41;99959.19;;;7.45;78.88
58072;BME280;60383;46.626;18.866;2023-02-24T06:41:06;99965.22;;;7.48;78.87
58072;BME280;60383;46.626;18.866;2023-02-24T06:43:39;99948.13;;;7.56;79.46
58072;BME280;60383;46.626;18.866;2023-02-24T06:46:08;99957.31;;;7.55;78.80
58072;BME280;60383;46.626;18.866;2023-02-24T06:48:33;99960.06;;;7.45;79.76
58072;BME280;60383;46.626;18.866;2023-02-24T06:51:07;99945.56;;;7.45;79.54
58072;BME280;60383;46.626;18.866;2023-02-24T06:53:35;99960.47;;;7.50;79.73
58072;BME280;60383;46.626;18.866;2023-02-24T06:56:11;99956.03;;;7.49;79.52
58072;BME280;60383;46.626;18.866;2023-02-24T06:58:41;99956.72;;;7.61;79.21
58072;BME280;60383;46.626;18.866;2023-02-24T07:01:13;99961.41;;;7.69;79.46
58072;BME280;60383;46.626;18.866;2023-02-24T07:03:39;99949.25;;;7.63;79.38
58072;BME280;60383;46.626;18.866;2023-02-24T07:06:06;99949.75;;;7.77;78.71
58072;BME280;60383;46.626;18.866;2023-02-24T07:08:51;99948.09;;;7.94;78.95
58072;BME280;60383;46.626;18.866;2023-02-24T07:11:18;99948.25;;;8.10;77.53
58072;BME280;60383;46.626;18.866;2023-02-24T07:13:45;99950.88;;;8.30;76.89
58072;BME280;60383;46.626;18.866;2023-02-24T07:16:19;99949.28;;;8.27;77.08
58072;BME280;60383;46.626;18.866;2023-02-24T07:18:45;99951.06;;;8.46;76.40
58072;BME280;60383;46.626;18.866;2023-02-24T07:21:15;99949.44;;;8.72;75.66
58072;BME280;60383;46.626;18.866;2023-02-24T07:23:43;99941.16;;;8.82;74.99
58072;BME280;60383;46.626;18.866;2023-02-24T07:26:11;99943.47;;;8.94;74.36
58072;BME280;60383;46.626;18.866;2023-02-24T07:28:38;99936.47;;;9.18;73.41
58072;BME280;60383;46.626;18.866;2023-02-24T07:31:06;99938.72;;;9.23;72.70
58072;BME280;60383;46.626;18.866;2023-02-24T07:33:36;99932.00;;;9.43;72.58
58072;BME280;60383;46.626;18.866;2023-02-24T07:36:05;99934.97;;;9.24;72.90
58072;BME280;60383;46.626;18.866;2023-02-24T07:38:37;99932.38;;;9.49;72.25
58072;BME280;60383;46.626;18.866;2023-02-24T07:41:04;99920.38;;;9.76;71.16
58072;BME280;60383;46.626;18.866;2023-02-24T07:43:33;99919.19;;;9.79;71.31
58072;BME280;60383;46.626;18.866;2023-02-24T07:46:09;99919.97;;;10.05;70.31
58072;BME280;60383;46.626;18.866;2023-02-24T07:48:36;99918.22;;;10.55;67.81
58072;BME280;60383;46.626;18.866;2023-02-24T07:51:07;99918.41;;;10.70;67.63
58072;BME280;60383;46.626;18.866;2023-02-24T07:53:33;99916.00;;;10.76;67.75
58072;BME280;60383;46.626;18.866;2023-02-24T07:55:59;99915.97;;;10.92;66.71
58072;BME280;60383;46.626;18.866;2023-02-24T07:58:25;99912.91;;;11.03;66.51
58072;BME280;60383;46.626;18.866;2023-02-24T08:00:52;99911.44;;;11.41;65.23
58072;BME280;60383;46.626;18.866;2023-02-24T08:03:27;99907.22;;;11.22;65.60
58072;BME280;60383;46.626;18.866;2023-02-24T08:05:56;99906.56;;;11.11;66.14
58072;BME280;60383;46.626;18.866;2023-02-24T08:08:38;99895.59;;;11.03;66.11
58072;BME280;60383;46.626;18.866;2023-02-24T08:11:26;99888.84;;;11.39;65.12
58072;BME280;60383;46.626;18.866;2023-02-24T08:13:58;99880.47;;;11.80;64.07
58072;BME280;60383;46.626;18.866;2023-02-24T08:16:27;99879.78;;;12.18;62.41
58072;BME280;60383;46.626;18.866;2023-02-24T08:19:07;99876.94;;;12.03;62.79
58072;BME280;60383;46.626;18.866;2023-02-24T08:21:34;99866.59;;;12.59;61.34
58072;BME280;60383;46.626;18.866;2023-02-24T08:24:12;99863.28;;;13.02;60.31
58072;BME280;60383;46.626;18.866;2023-02-24T08:26:43;99868.34;;;13.29;58.52
58072;BME280;60383;46.626;18.866;2023-02-24T08:29:10;99853.91;;;13.26;57.94
58072;BME280;60383;46.626;18.866;2023-02-24T08:31:35;99856.47;;;13.13;58.03
58072;BME280;60383;46.626;18.866;2023-02-24T08:34:01;99847.31;;;12.83;59.28
58072;BME280;60383;46.626;18.866;2023-02-24T08:36:26;99849.56;;;12.64;59.46
58072;BME280;60383;46.626;18.866;2023-02-24T08:38:52;99849.91;;;12.61;60.21
58072;BME280;60383;46.626;18.866;2023-02-24T08:41:19;99844.00;;;12.26;60.65
58072;BME280;60383;46.626;18.866;2023-02-24T08:43:53;99837.72;;;12.40;60.98
58072;BME280;60383;46.626;18.866;2023-02-24T08:46:22;99840.22;;;12.27;60.89
58072;BME280;60383;46.626;18.866;2023-02-24T08:48:56;99834.34;;;12.38;61.23
58072;BME280;60383;46.626;18.866;2023-02-24T08:51:28;99844.13;;;12.56;60.22
58072;BME280;60383;46.626;18.866;2023-02-24T08:54:05;99832.66;;;12.52;60.57
58072;BME280;60383;46.626;18.866;2023-02-24T08:56:36;99829.69;;;12.77;60.54
58072;BME280;60383;46.626;18.866;2023-02-24T08:59:09;99824.38;;;12.75;61.20
58072;BME280;60383;46.626;18.866;2023-02-24T09:01:54;99817.66;;;12.78;60.19
58072;BME280;60383;46.626;18.866;2023-02-24T09:04:40;99824.19;;;12.77;59.60
58072;BME280;60383;46.626;18.866;2023-02-24T09:07:12;99819.16;;;12.81;60.21
58072;BME280;60383;46.626;18.866;2023-02-24T09:09:39;99817.16;;;12.74;59.75
58072;BME280;60383;46.626;18.866;2023-02-24T09:12:07;99812.72;;;12.73;60.18
58072;BME280;60383;46.626;18.866;2023-02-24T09:14:34;99809.88;;;12.82;59.59
58072;BME280;60383;46.626;18.866;2023-02-24T09:17:06;99808.97;;;13.04;59.66
58072;BME280;60383;46.626;18.866;2023-02-24T09:19:43;99806.59;;;13.46;57.88
58072;BME280;60383;46.626;18.866;2023-02-24T09:22:23;99802.59;;;14.00;57.02
58072;BME280;60383;46.626;18.866;2023-02-24T09:24:51;99800.56;;;14.31;54.04
58072;BME280;60383;46.626;18.866;2023-02-24T09:27:37;99801.03;;;14.56;52.91
58072;BME280;60383;46.626;18.866;2023-02-24T09:30:08;99787.09;;;14.86;52.29
58072;BME280;60383;46.626;18.866;2023-02-24T09:32:50;99793.16;;;15.03;51.50
58072;BME280;60383;46.626;18.866;2023-02-24T09:35:26;99787.84;;;15.50;51.12
58072;BME280;60383;46.626;18.866;2023-02-24T09:37:58;99778.91;;;15.41;50.15
58072;BME280;60383;46.626;18.866;2023-02-24T09:40:32;99778.84;;;15.28;49.76
58072;BME280;60383;46.626;18.866;2023-02-24T09:43:15;99779.25;;;15.25;50.00
58072;BME280;60383;46.626;18.866;2023-02-24T09:48:41;99782.31;;;15.99;48.62
58072;BME280;60383;46.626;18.866;2023-02-24T09:51:15;99780.44;;;16.06;47.89
58072;BME280;60383;46.626;18.866;2023-02-24T09:53:49;99773.16;;;15.91;47.96
58072;BME280;60383;46.626;18.866;2023-02-24T09:56:36;99765.94;;;15.84;47.78
58072;BME280;60383;46.626;18.866;2023-02-24T10:07:32;99755.22;;;15.60;50.03
58072;BME280;60383;46.626;18.866;2023-02-24T10:10:22;99757.19;;;15.25;49.74
58072;BME280;60383;46.626;18.866;2023-02-24T10:13:19;99751.56;;;15.05;49.81
58072;BME280;60383;46.626;18.866;2023-02-24T10:15:56;99744.69;;;15.29;48.97
58072;BME280;60383;46.626;18.866;2023-02-24T10:20:52;99735.16;;;15.31;48.18
58072;BME280;60383;46.626;18.866;2023-02-24T10:26:29;99722.13;;;15.74;47.18
58072;BME280;60383;46.626;18.866;2023-02-24T10:31:48;99718.38;;;16.08;47.43
58072;BME280;60383;46.626;18.866;2023-02-24T10:34:23;99704.81;;;16.07;47.06
58072;BME280;60383;46.626;18.866;2023-02-24T10:37:04;99721.16;;;16.02;45.10
58072;BME280;60383;46.626;18.866;2023-02-24T10:39:35;99710.31;;;15.93;45.73
58072;BME280;60383;46.626;18.866;2023-02-24T10:42:03;99705.22;;;16.31;45.25
58072;BME280;60383;46.626;18.866;2023-02-24T10:44:49;99703.94;;;16.40;45.08
58072;BME280;60383;46.626;18.866;2023-02-24T10:47:28;99690.59;;;16.23;44.74
58072;BME280;60383;46.626;18.866;2023-02-24T10:49:58;99695.88;;;16.45;44.24
58072;BME280;60383;46.626;18.866;2023-02-24T10:52:40;99685.69;;;16.45;43.38
58072;BME280;60383;46.626;18.866;2023-02-24T10:55:38;99679.88;;;16.74;43.54
58072;BME280;60383;46.626;18.866;2023-02-24T10:58:32;99663.06;;;16.82;43.35
58072;BME280;60383;46.626;18.866;2023-02-24T11:01:29;99657.22;;;17.17;41.89
58072;BME280;60383;46.626;18.866;2023-02-24T11:04:15;99652.84;;;16.83;42.30
58072;BME280;60383;46.626;18.866;2023-02-24T11:07:11;99650.03;;;17.03;42.12
58072;BME280;60383;46.626;18.866;2023-02-24T11:09:39;99644.88;;;17.13;42.47
58072;BME280;60383;46.626;18.866;2023-02-24T11:12:21;99642.34;;;17.12;42.54
58072;BME280;60383;46.626;18.866;2023-02-24T11:15:31;99635.03;;;17.24;42.51
58072;BME280;60383;46.626;18.866;2023-02-24T11:18:20;99631.53;;;16.90;41.70
58072;BME280;60383;46.626;18.866;2023-02-24T11:20:51;99621.50;;;17.09;40.97
58072;BME280;60383;46.626;18.866;2023-02-24T11:26:05;99621.22;;;16.65;42.76
58072;BME280;60383;46.626;18.866;2023-02-24T11:31:58;99600.75;;;16.73;41.99
58072;BME280;60383;46.626;18.866;2023-02-24T11:34:54;99598.00;;;16.80;41.88
58072;BME280;60383;46.626;18.866;2023-02-24T11:37:57;99596.75;;;16.62;41.79
58072;BME280;60383;46.626;18.866;2023-02-24T11:40:27;99590.63;;;16.53;42.62
58072;BME280;60383;46.626;18.866;2023-02-24T11:45:55;99583.47;;;16.25;44.20
58072;BME280;60383;46.626;18.866;2023-02-24T11:48:40;99573.50;;;16.18;43.78
58072;BME280;60383;46.626;18.866;2023-02-24T11:51:19;99570.28;;;16.21;43.27
58072;BME280;60383;46.626;18.866;2023-02-24T11:56:47;99563.69;;;16.28;43.29
58072;BME280;60383;46.626;18.866;2023-02-24T12:05:12;99549.81;;;16.55;43.01
58072;BME280;60383;46.626;18.866;2023-02-24T12:07:43;99546.50;;;16.79;43.43
58072;BME280;60383;46.626;18.866;2023-02-24T12:13:01;99530.09;;;16.90;42.82
58072;BME280;60383;46.626;18.866;2023-02-24T12:18:45;99521.63;;;16.79;43.45
58072;BME280;60383;46.626;18.866;2023-02-24T12:21:17;99525.34;;;16.52;43.51
58072;BME280;60383;46.626;18.866;2023-02-24T12:23:46;99516.94;;;16.79;43.58
58072;BME280;60383;46.626;18.866;2023-02-24T12:26:24;99511.56;;;16.91;41.94
58072;BME280;60383;46.626;18.866;2023-02-24T12:31:49;99512.19;;;17.00;42.54
58072;BME280;60383;46.626;18.866;2023-02-24T12:42:15;99487.81;;;16.76;41.55
58072;BME280;60383;46.626;18.866;2023-02-24T12:47:44;99493.63;;;17.07;40.96
58072;BME280;60383;46.626;18.866;2023-02-24T12:53:22;99488.88;;;16.82;41.12
58072;BME280;60383;46.626;18.866;2023-02-24T12:56:18;99490.50;;;16.97;41.09
58072;BME280;60383;46.626;18.866;2023-02-24T12:58:48;99472.63;;;16.99;40.73
58072;BME280;60383;46.626;18.866;2023-02-24T13:06:40;99478.22;;;17.18;40.46
58072;BME280;60383;46.626;18.866;2023-02-24T13:15:24;99466.19;;;16.67;40.81
58072;BME280;60383;46.626;18.866;2023-02-24T13:17:52;99461.16;;;16.89;40.90
58072;BME280;60383;46.626;18.866;2023-02-24T13:20:35;99453.56;;;17.16;41.19
58072;BME280;60383;46.626;18.866;2023-02-24T13:23:16;99450.63;;;17.11;41.25
58072;BME280;60383;46.626;18.866;2023-02-24T13:25:49;99444.41;;;17.41;41.44
58072;BME280;60383;46.626;18.866;2023-02-24T13:28:35;99445.88;;;17.44;41.07
58072;BME280;60383;46.626;18.866;2023-02-24T13:31:10;99456.91;;;17.25;41.43
58072;BME280;60383;46.626;18.866;2023-02-24T13:33:39;99451.47;;;17.12;41.38
58072;BME280;60383;46.626;18.866;2023-02-24T13:36:12;99456.47;;;16.96;41.62
58072;BME280;60383;46.626;18.866;2023-02-24T13:38:41;99442.44;;;16.98;40.65
58072;BME280;60383;46.626;18.866;2023-02-24T13:46:27;99441.34;;;16.60;42.47
58072;BME280;60383;46.626;18.866;2023-02-24T13:48:59;99447.94;;;16.59;42.47
58072;BME280;60383;46.626;18.866;2023-02-24T13:51:48;99424.69;;;16.35;43.12
58072;BME280;60383;46.626;18.866;2023-02-24T13:57:21;99444.16;;;16.01;43.91
58072;BME280;60383;46.626;18.866;2023-02-24T14:02:52;99439.03;;;16.05;44.36
58072;BME280;60383;46.626;18.866;2023-02-24T14:05:24;99430.31;;;16.08;44.38
58072;BME280;60383;46.626;18.866;2023-02-24T14:07:51;99431.50;;;16.32;43.89
58072;BME280;60383;46.626;18.866;2023-02-24T14:10:21;99423.88;;;16.27;44.13
58072;BME280;60383;46.626;18.866;2023-02-24T14:12:54;99426.03;;;16.19;44.70
58072;BME280;60383;46.626;18.866;2023-02-24T14:15:25;99416.41;;;16.28;44.27
58072;BME280;60383;46.626;18.866;2023-02-24T14:18:03;99413.88;;;16.33;44.87
58072;BME280;60383;46.626;18.866;2023-02-24T14:20:33;99412.38;;;16.31;45.11
58072;BME280;60383;46.626;18.866;2023-02-24T14:23:00;99394.25;;;16.41;44.93
58072;BME280;60383;46.626;18.866;2023-02-24T14:25:28;99394.53;;;16.26;45.52
58072;BME280;60383;46.626;18.866;2023-02-24T14:27:58;99400.13;;;16.13;45.34
58072;BME280;60383;46.626;18.866;2023-02-24T14:32:55;99394.19;;;16.16;45.60
58072;BME280;60383;46.626;18.866;2023-02-24T14:35:36;99393.59;;;16.01;45.66
58072;BME280;60383;46.626;18.866;2023-02-24T14:38:03;99394.84;;;16.05;44.78
58072;BME280;60383;46.626;18.866;2023-02-24T14:40:30;99389.16;;;15.93;44.65
58072;BME280;60383;46.626;18.866;2023-02-24T14:42:56;99383.84;;;15.98;44.49
58072;BME280;60383;46.626;18.866;2023-02-24T14:45:25;99396.78;;;16.04;44.93
58072;BME280;60383;46.626;18.866;2023-02-24T14:47:55;99388.72;;;16.03;44.87
58072;BME280;60383;46.626;18.866;2023-02-24T14:50:29;99387.25;;;15.93;45.51
58072;BME280;60383;46.626;18.866;2023-02-24T14:53:00;99384.31;;;15.88;46.00
58072;BME280;60383;46.626;18.866;2023-02-24T14:55:40;99385.16;;;15.89;46.04
58072;BME280;60383;46.626;18.866;2023-02-24T14:58:36;99378.75;;;15.81;45.91
58072;BME280;60383;46.626;18.866;2023-02-24T15:01:15;99387.50;;;15.85;45.87
58072;BME280;60383;46.626;18.866;2023-02-24T15:03:53;99373.88;;;15.90;45.41
58072;BME280;60383;46.626;18.866;2023-02-24T15:06:29;99370.28;;;15.76;45.61
58072;BME280;60383;46.626;18.866;2023-02-24T15:09:01;99365.66;;;15.63;45.76
58072;BME280;60383;46.626;18.866;2023-02-24T15:11:29;99367.38;;;15.58;45.93
58072;BME280;60383;46.626;18.866;2023-02-24T15:13:58;99371.41;;;15.62;45.49
58072;BME280;60383;46.626;18.866;2023-02-24T15:16:39;99358.44;;;15.62;45.18
58072;BME280;60383;46.626;18.866;2023-02-24T15:19:30;99369.72;;;15.54;45.24
58072;BME280;60383;46.626;18.866;2023-02-24T15:21:56;99365.50;;;15.45;45.93
58072;BME280;60383;46.626;18.866;2023-02-24T15:24:27;99364.63;;;15.58;45.61
58072;BME280;60383;46.626;18.866;2023-02-24T15:27:02;99361.88;;;15.51;45.79